Owings Mills, Maryland
Current Conditions -  °F | °C
As of 4:54 AM on Sunday 25 Jan 2015 (Local Time) from KBWI Reporting Station
Broken Clouds Broken Clouds  
Wind Chill: 30°   Ceiling: 4800
Heat Index: 34°   Visibility: 10mi
Dew Point: 27°   Wind: 5mph
Humidity: 75%   Direction: 230°SW
Pressure: 29.74"   Gusts: NA
Location:  39.41°N, 76.79°W
Report Text: KBWI 250954Z 23004KT 10SM BKN048 BKN140 01/M03 A2974 RMK AO2 SLP071 T00111028
Loading
Personal Weather Stations






























Interactive Weather Map New forecast layout! Learn more

10-Day Weather Forecast

Advertisements
Track Severe Weather on mobile